Time;durP1;ratioP1;P1;durP2;ratioP2;P2;SDS_P1;SDS_P2;PMS_P1;PMS_P2;Temp;Humidity;BMP_temperature;BMP_pressure;BME280_temperature;BME280_humidity;BME280_pressure;Samples;Min_cycle;Max_cycle;Signal;HPM_P1;HPM_P2
2022/04/25 00:02:29;;;;;;;9.55;7.57;;;8.30;99.90;;;;;;5207655;28;20072;-70
2022/04/25 00:05:00;;;;;;;11.38;7.38;;;8.10;99.90;;;;;;5207557;28;20032;-71
2022/04/25 00:07:30;;;;;;;12.43;7.80;;;8.30;99.90;;;;;;5207556;28;20021;-69
2022/04/25 00:10:01;;;;;;;11.27;8.73;;;7.80;99.90;;;;;;5207428;28;20057;-70
2022/04/25 00:12:32;;;;;;;14.00;8.70;;;7.80;99.90;;;;;;5207515;28;20052;-69
2022/04/25 00:15:04;;;;;;;10.73;7.97;;;7.70;99.90;;;;;;5206047;28;20033;-72
2022/04/25 00:17:35;;;;;;;9.93;7.63;;;8.20;99.90;;;;;;5207212;28;20049;-69
2022/04/25 00:20:08;;;;;;;10.10;7.93;;;7.80;99.90;;;;;;5207063;28;20100;-69
2022/04/25 00:22:39;;;;;;;12.55;7.95;;;7.80;99.90;;;;;;5206715;28;20071;-69
2022/04/25 00:25:09;;;;;;;11.40;7.80;;;7.80;99.90;;;;;;5207292;28;20037;-69
2022/04/25 00:27:40;;;;;;;11.32;7.90;;;7.80;99.90;;;;;;5207218;28;20018;-72
2022/04/25 00:30:11;;;;;;;12.23;7.47;;;7.80;99.90;;;;;;5207153;28;20033;-69
2022/04/25 00:32:42;;;;;;;12.57;7.43;;;8.00;99.90;;;;;;5207187;28;20025;-69
2022/04/25 00:35:13;;;;;;;11.63;7.65;;;7.80;99.90;;;;;;5207195;28;20507;-69
2022/04/25 00:37:44;;;;;;;9.98;7.95;;;7.50;99.90;;;;;;5207015;28;20469;-71
2022/04/25 00:40:16;;;;;;;17.65;8.73;;;7.50;99.90;;;;;;5207168;28;20026;-69
2022/04/25 00:42:48;;;;;;;9.95;7.60;;;7.90;99.90;;;;;;5206965;28;20065;-71
2022/04/25 00:45:19;;;;;;;14.30;7.93;;;7.80;99.90;;;;;;5206924;28;20030;-69
2022/04/25 00:47:50;;;;;;;11.98;7.78;;;7.90;99.90;;;;;;5206884;28;20029;-70
2022/04/25 00:50:21;;;;;;;12.18;7.30;;;7.40;99.90;;;;;;5206862;28;20033;-72
2022/04/25 00:52:52;;;;;;;13.23;7.43;;;7.60;99.90;;;;;;5206970;28;20025;-69
2022/04/25 00:55:23;;;;;;;15.20;7.80;;;7.60;99.90;;;;;;5206709;28;20091;-69
2022/04/25 00:57:56;;;;;;;11.30;7.65;;;7.60;99.90;;;;;;5206848;28;20068;-71
2022/04/25 01:00:27;;;;;;;9.32;7.13;;;7.60;99.90;;;;;;5206690;28;20397;-70
2022/04/25 01:02:58;;;;;;;9.75;7.38;;;7.80;99.90;;;;;;5205523;28;20038;-69
2022/04/25 01:05:29;;;;;;;10.32;6.95;;;7.90;99.90;;;;;;5206676;28;20029;-69
2022/04/25 01:08:00;;;;;;;11.27;7.07;;;7.80;99.90;;;;;;5206589;28;20025;-70
2022/04/25 01:10:31;;;;;;;11.07;7.43;;;7.60;99.90;;;;;;5206737;28;20021;-71
2022/04/25 01:13:01;;;;;;;12.00;7.38;;;7.70;99.90;;;;;;5206756;28;20104;-71
2022/04/25 01:15:32;;;;;;;14.10;8.10;;;7.20;99.90;;;;;;5206677;28;20030;-70
2022/04/25 01:18:03;;;;;;;11.38;7.78;;;7.30;99.90;;;;;;5206362;28;20018;-69
2022/04/25 01:20:34;;;;;;;12.82;8.00;;;7.30;99.90;;;;;;5205138;28;20068;-70
2022/04/25 01:28:43;;;;;;;15.82;9.25;;;6.80;99.90;;;;;;5206557;28;20381;-69
2022/04/25 01:31:14;;;;;;;11.75;9.00;;;7.00;99.90;;;;;;5206466;28;20021;-69
2022/04/25 01:33:45;;;;;;;15.00;9.43;;;6.90;99.90;;;;;;5206613;28;20358;-68
2022/04/25 01:36:16;;;;;;;17.15;9.82;;;7.00;99.90;;;;;;5206370;28;20022;-72
2022/04/25 01:38:47;;;;;;;13.30;8.05;;;7.50;99.90;;;;;;5206652;28;20370;-71
2022/04/25 01:41:18;;;;;;;13.10;8.13;;;7.40;99.90;;;;;;5206420;28;20013;-70
2022/04/25 01:43:49;;;;;;;12.38;7.97;;;7.10;99.90;;;;;;5206384;28;20448;-71
2022/04/25 01:46:20;;;;;;;13.73;8.93;;;7.00;99.90;;;;;;5206154;28;20029;-72
2022/04/25 01:48:50;;;;;;;16.30;8.55;;;7.00;99.90;;;;;;5206427;28;20034;-73
2022/04/25 01:51:21;;;;;;;12.27;7.50;;;6.90;99.90;;;;;;5206166;28;20079;-72
2022/04/25 01:53:52;;;;;;;12.00;8.27;;;6.80;99.90;;;;;;5206230;28;20021;-69
2022/04/25 01:56:23;;;;;;;15.35;9.15;;;7.30;99.90;;;;;;5206314;28;20484;-69
2022/04/25 01:58:53;;;;;;;16.48;9.30;;;7.20;99.90;;;;;;5206128;28;20026;-72
2022/04/25 02:01:24;;;;;;;13.63;8.90;;;7.10;99.90;;;;;;5206254;28;20100;-69
2022/04/25 02:03:55;;;;;;;14.27;8.90;;;7.20;99.90;;;;;;5206035;28;20040;-71
2022/04/25 02:06:27;;;;;;;16.27;8.13;;;7.20;99.90;;;;;;5206845;28;20029;-70
2022/04/25 02:08:58;;;;;;;9.80;7.28;;;7.20;99.90;;;;;;5209875;28;20430;-72
2022/04/25 02:11:31;;;;;;;13.50;8.40;;;6.80;99.90;;;;;;5209876;28;20159;-70
2022/04/25 02:14:01;;;;;;;10.68;7.95;;;7.00;99.90;;;;;;5208431;28;20029;-69
2022/04/25 02:16:32;;;;;;;12.43;7.40;;;7.10;99.90;;;;;;5209585;28;20354;-69
2022/04/25 02:19:03;;;;;;;13.15;8.02;;;6.80;99.90;;;;;;5209407;28;20167;-69
2022/04/25 02:21:34;;;;;;;11.75;7.93;;;6.40;99.90;;;;;;5209403;28;20040;-69
2022/04/25 02:24:05;;;;;;;10.70;8.13;;;6.30;99.90;;;;;;5209418;28;20043;-72
2022/04/25 02:26:36;;;;;;;11.63;8.45;;;6.20;99.90;;;;;;5209577;28;20411;-72
2022/04/25 02:29:07;;;;;;;13.07;8.93;;;6.50;99.90;;;;;;5209459;28;20108;-71
2022/04/25 02:31:38;;;;;;;16.95;9.05;;;6.70;99.90;;;;;;5209461;28;20017;-69
2022/04/25 02:34:09;;;;;;;12.90;8.50;;;6.90;99.90;;;;;;5209348;28;20480;-70
2022/04/25 02:36:40;;;;;;;10.55;7.53;;;6.70;99.90;;;;;;5209425;28;20018;-72
2022/04/25 02:39:10;;;;;;;9.77;7.57;;;6.80;99.90;;;;;;5209092;28;20051;-71
2022/04/25 02:41:41;;;;;;;12.07;8.18;;;6.40;99.90;;;;;;5209180;28;20024;-69
2022/04/25 02:44:12;;;;;;;12.05;7.65;;;6.50;99.90;;;;;;5209077;28;20033;-71
2022/04/25 02:46:43;;;;;;;10.32;7.72;;;6.70;99.90;;;;;;5209151;28;20424;-69
2022/04/25 02:49:14;;;;;;;10.05;7.70;;;6.80;99.90;;;;;;5209065;28;20037;-69
2022/04/25 02:51:45;;;;;;;9.80;7.10;;;6.80;99.90;;;;;;5207645;28;20014;-69
2022/04/25 02:54:16;;;;;;;10.07;7.32;;;6.70;99.90;;;;;;5208955;28;20103;-69
2022/04/25 02:56:47;;;;;;;9.65;7.10;;;6.50;99.90;;;;;;5208926;28;20026;-69
2022/04/25 02:59:20;;;;;;;13.82;7.53;;;6.70;99.90;;;;;;5208964;28;20365;-69
2022/04/25 03:01:51;;;;;;;12.05;7.18;;;6.40;99.90;;;;;;5208724;28;20361;-68
2022/04/25 03:04:21;;;;;;;10.65;8.20;;;6.30;99.90;;;;;;5208862;28;20038;-72
2022/04/25 03:06:53;;;;;;;11.02;7.93;;;6.40;99.90;;;;;;5208676;28;20060;-68
2022/04/25 03:09:24;;;;;;;12.05;7.90;;;6.30;99.90;;;;;;5208838;28;20083;-69
2022/04/25 03:11:57;;;;;;;11.45;7.32;;;5.90;99.90;;;;;;5208695;28;20448;-69
2022/04/25 03:14:28;;;;;;;13.05;7.80;;;6.30;99.90;;;;;;5207559;28;20424;-69
2022/04/25 03:16:59;;;;;;;11.60;8.07;;;6.60;99.90;;;;;;5208238;28;20025;-70
2022/04/25 03:19:30;;;;;;;10.20;6.93;;;6.10;99.90;;;;;;5208744;28;20058;-68
2022/04/25 03:22:01;;;;;;;10.77;7.25;;;6.20;99.90;;;;;;5208488;28;20030;-70
2022/04/25 03:24:32;;;;;;;9.60;7.10;;;6.30;99.90;;;;;;5207181;28;20495;-69
2022/04/25 03:27:03;;;;;;;10.80;7.28;;;6.40;99.90;;;;;;5208268;28;20108;-69
2022/04/25 03:29:33;;;;;;;10.52;7.05;;;6.10;99.90;;;;;;5208254;28;20030;-69
2022/04/25 03:32:05;;;;;;;12.27;7.07;;;6.50;99.90;;;;;;5208313;28;20049;-70
2022/04/25 03:34:37;;;;;;;9.23;6.95;;;6.70;99.90;;;;;;5208430;28;20091;-69
2022/04/25 03:37:11;;;;;;;11.85;7.80;;;6.10;99.90;;;;;;5208190;28;20029;-69
2022/04/25 03:39:42;;;;;;;9.88;7.35;;;6.20;99.90;;;;;;5208373;28;20083;-71
2022/04/25 03:42:13;;;;;;;11.07;7.32;;;6.30;99.90;;;;;;5206759;28;20350;-69
2022/04/25 03:44:45;;;;;;;11.20;8.73;;;6.20;99.90;;;;;;5208007;28;20033;-69
2022/04/25 03:47:16;;;;;;;11.48;8.00;;;6.40;99.90;;;;;;5207916;28;20453;-70
2022/04/25 03:49:47;;;;;;;10.43;7.60;;;6.40;99.90;;;;;;5207788;28;20030;-69
2022/04/25 03:52:18;;;;;;;11.00;7.60;;;6.70;99.90;;;;;;5207823;28;20358;-72
2022/04/25 03:57:38;;;;;;;11.55;7.72;;;6.70;99.90;;;;;;5207739;28;20052;-69
2022/04/25 04:00:10;;;;;;;13.38;8.10;;;6.60;99.90;;;;;;5207669;28;20018;-71
2022/04/25 04:02:41;;;;;;;12.73;7.78;;;6.50;99.90;;;;;;5207620;28;20025;-69
2022/04/25 04:05:12;;;;;;;11.20;7.32;;;7.00;99.90;;;;;;5207626;28;20362;-69
2022/04/25 04:07:43;;;;;;;10.95;7.00;;;7.00;99.90;;;;;;5207452;28;20026;-68
2022/04/25 04:10:14;;;;;;;12.93;7.53;;;7.00;99.90;;;;;;5207658;28;20026;-72
2022/04/25 04:12:46;;;;;;;11.82;7.03;;;7.00;99.90;;;;;;5206279;28;20025;-70
2022/04/25 04:15:17;;;;;;;14.25;6.72;;;6.80;99.90;;;;;;5207379;28;20373;-69
2022/04/25 04:17:48;;;;;;;14.32;6.90;;;6.80;99.90;;;;;;5207340;28;20422;-70
2022/04/25 04:20:19;;;;;;;15.13;7.70;;;7.10;99.90;;;;;;5207131;28;20080;-69
2022/04/25 04:22:50;;;;;;;12.40;7.80;;;7.10;99.90;;;;;;5207161;28;20053;-68
2022/04/25 04:25:22;;;;;;;11.75;7.55;;;7.40;99.90;;;;;;5207328;28;20444;-69
2022/04/25 04:27:53;;;;;;;10.60;6.93;;;7.40;99.90;;;;;;5207313;28;20025;-72
2022/04/25 04:30:24;;;;;;;15.68;7.38;;;7.30;99.90;;;;;;5206714;28;20036;-70
2022/04/25 04:32:55;;;;;;;9.20;7.20;;;7.70;99.90;;;;;;5207108;28;20377;-72
2022/04/25 04:38:15;;;;;;;10.93;7.30;;;7.90;99.90;;;;;;5207156;28;20090;-70
2022/04/25 04:40:45;;;;;;;13.45;7.75;;;7.70;99.90;;;;;;5207075;28;20021;-72
2022/04/25 04:43:16;;;;;;;10.00;7.35;;;7.70;99.90;;;;;;5206889;28;20034;-70
2022/04/25 04:45:47;;;;;;;12.05;6.95;;;8.00;99.90;;;;;;5205743;28;20052;-68
2022/04/25 04:48:19;;;;;;;13.38;7.78;;;8.20;99.90;;;;;;5206790;28;20026;-72
2022/04/25 04:50:55;;;;;;;13.85;7.72;;;8.10;99.90;;;;;;5206885;28;20052;-69
2022/04/25 04:53:26;;;;;;;9.40;7.47;;;8.10;99.90;;;;;;5206954;28;20415;-69
2022/04/25 04:55:57;;;;;;;13.57;7.53;;;8.50;99.90;;;;;;5206768;28;20113;-69
2022/04/25 04:58:28;;;;;;;13.88;7.00;;;8.60;99.90;;;;;;5206863;28;20024;-69
2022/04/25 05:00:59;;;;;;;9.85;7.10;;;8.80;99.90;;;;;;5205131;28;20071;-69
2022/04/25 05:03:30;;;;;;;11.38;8.30;;;8.80;99.90;;;;;;5206787;28;20125;-69
2022/04/25 05:06:01;;;;;;;11.77;7.35;;;9.10;99.90;;;;;;5206787;28;20168;-71
2022/04/25 05:08:31;;;;;;;10.48;7.82;;;9.70;99.90;;;;;;5206819;28;20030;-69
2022/04/25 05:11:04;;;;;;;12.48;6.88;;;9.60;99.90;;;;;;5206880;28;20361;-69
2022/04/25 05:13:36;;;;;;;11.25;8.43;;;9.90;99.90;;;;;;5206535;28;20025;-73
2022/04/25 05:16:07;;;;;;;11.93;7.72;;;10.10;99.90;;;;;;5206377;28;20018;-74
2022/04/25 05:18:38;;;;;;;14.75;9.65;;;10.50;99.90;;;;;;5206416;28;20061;-72
2022/04/25 05:21:09;;;;;;;14.35;9.75;;;10.30;99.90;;;;;;5206266;28;20042;-70
2022/04/25 05:23:42;;;;;;;15.10;9.88;;;10.50;99.90;;;;;;5206408;28;20087;-74
2022/04/25 05:26:13;;;;;;;15.25;9.38;;;10.90;99.90;;;;;;5206318;28;20029;-74
2022/04/25 05:28:43;;;;;;;15.52;9.77;;;11.30;99.90;;;;;;5206392;28;20028;-69
2022/04/25 05:31:14;;;;;;;13.05;9.13;;;11.10;99.90;;;;;;5206384;28;20465;-73
2022/04/25 05:33:45;;;;;;;17.30;9.77;;;11.10;99.90;;;;;;5206408;28;20108;-72
2022/04/25 05:36:17;;;;;;;12.18;9.07;;;11.80;99.90;;;;;;5200964;28;20041;-72
2022/04/25 05:38:59;;;;;;;19.98;9.80;;;12.20;99.90;;;;;;5178654;28;20044;-72
2022/04/25 05:41:37;;;;;;;21.48;10.27;;;12.40;99.90;;;;;;5191940;28;20534;-73
2022/04/25 05:44:10;;;;;;;15.57;9.68;;;12.70;99.90;;;;;;5191482;28;20038;-74
2022/04/25 05:46:49;;;;;;;15.43;9.10;;;12.70;99.90;;;;;;5200150;28;20374;-74
2022/04/25 05:52:17;;;;;;;19.05;9.80;;;13.30;99.90;;;;;;5189506;28;20073;-72
2022/04/25 05:54:48;;;;;;;18.10;10.77;;;13.40;99.90;;;;;;5195303;28;20044;-73
2022/04/25 05:57:18;;;;;;;26.52;10.98;;;13.60;99.90;;;;;;5194545;28;20034;-72
2022/04/25 05:59:49;;;;;;;20.85;12.30;;;14.30;99.90;;;;;;5195451;28;20030;-72
2022/04/25 06:02:20;;;;;;;22.65;13.68;;;14.30;99.90;;;;;;5191064;28;20148;-74
2022/04/25 06:04:51;;;;;;;53.13;17.38;;;14.40;99.90;;;;;;5195717;28;20045;-70
2022/04/25 06:07:22;;;;;;;28.80;14.95;;;14.70;99.90;;;;;;5193620;28;21362;-74
2022/04/25 06:09:52;;;;;;;21.85;11.82;;;15.00;99.90;;;;;;5194657;28;20058;-72
2022/04/25 06:12:23;;;;;;;16.85;9.15;;;15.20;99.90;;;;;;5197446;28;20030;-72
2022/04/25 06:14:54;;;;;;;11.77;8.18;;;15.20;99.90;;;;;;5197787;28;20104;-71
2022/04/25 06:17:25;;;;;;;10.40;5.95;;;15.50;99.90;;;;;;5193327;28;20042;-74
2022/04/25 06:19:55;;;;;;;12.68;6.70;;;15.50;99.90;;;;;;5196722;28;20048;-74
2022/04/25 06:22:26;;;;;;;13.98;6.53;;;16.10;99.90;;;;;;5193885;28;20033;-72
2022/04/25 06:24:57;;;;;;;11.32;5.70;;;16.00;99.90;;;;;;5196661;28;20473;-74
2022/04/25 06:27:28;;;;;;;12.23;6.20;;;16.20;99.90;;;;;;5191196;28;20052;-74
2022/04/25 06:29:59;;;;;;;16.00;6.38;;;16.00;99.90;;;;;;5198123;28;20512;-74
2022/04/25 06:32:33;;;;;;;13.15;5.90;;;16.30;99.90;;;;;;5192457;28;20038;-72
2022/04/25 06:35:06;;;;;;;12.35;6.03;;;16.30;99.90;;;;;;5194059;28;20096;-75
2022/04/25 06:37:41;;;;;;;14.93;6.30;;;16.50;99.90;;;;;;5194904;28;20026;-69
2022/04/25 06:40:14;;;;;;;11.13;5.85;;;16.90;99.90;;;;;;5187023;28;20030;-69
2022/04/25 06:42:49;;;;;;;12.60;7.03;;;16.70;99.90;;;;;;5187749;28;20035;-73
2022/04/25 06:45:23;;;;;;;10.30;5.82;;;16.80;99.90;;;;;;5189546;28;20034;-72
2022/04/25 06:47:57;;;;;;;11.68;6.03;;;17.00;99.90;;;;;;5192056;28;20384;-74
2022/04/25 06:50:31;;;;;;;13.18;6.70;;;17.30;99.90;;;;;;5195323;28;20034;-72
2022/04/25 06:53:06;;;;;;;12.25;6.03;;;17.30;99.90;;;;;;5195135;28;20598;-72
2022/04/25 06:55:38;;;;;;;13.82;6.45;;;17.60;99.90;;;;;;5196224;28;20620;-71
2022/04/25 06:58:12;;;;;;;17.80;7.38;;;17.70;99.90;;;;;;5197266;28;20028;-73
2022/04/25 07:00:49;;;;;;;15.45;7.40;;;17.50;99.90;;;;;;5193825;28;20037;-73
2022/04/25 07:03:24;;;;;;;17.42;8.02;;;17.90;99.90;;;;;;5192821;28;20041;-74
2022/04/25 07:05:56;;;;;;;20.75;9.00;;;18.20;99.90;;;;;;5186948;28;20026;-75
2022/04/25 07:08:34;;;;;;;14.55;8.77;;;18.10;99.90;;;;;;5194146;28;20452;-74
2022/04/25 07:11:07;;;;;;;19.40;8.85;;;18.30;99.90;;;;;;5188871;28;20113;-73
2022/04/25 07:13:45;;;;;;;19.48;8.38;;;18.30;99.90;;;;;;5191359;28;20021;-73
2022/04/25 07:16:19;;;;;;;18.75;8.30;;;18.70;99.90;;;;;;5198605;28;20028;-73
2022/04/25 07:18:53;;;;;;;17.10;8.70;;;18.20;99.90;;;;;;5207518;28;20029;-71
2022/04/25 07:30:03;;;;;;;17.73;6.97;;;19.30;99.90;;;;;;5208061;28;20560;-69
2022/04/25 07:32:41;;;;;;;16.75;6.85;;;19.20;99.90;;;;;;5206615;28;20057;-71
2022/04/25 07:35:13;;;;;;;16.30;8.43;;;19.50;99.90;;;;;;5207953;28;20046;-72
2022/04/25 07:37:48;;;;;;;15.77;7.60;;;19.50;99.90;;;;;;5193738;28;20029;-71
2022/04/25 07:40:21;;;;;;;17.20;7.30;;;19.70;99.90;;;;;;5187390;28;20022;-71
2022/04/25 07:42:59;;;;;;;12.30;6.10;;;19.90;99.90;;;;;;5185773;28;20033;-71
2022/04/25 07:45:34;;;;;;;9.85;4.68;;;20.10;99.90;;;;;;5187027;28;20037;-72
2022/04/25 07:48:12;;;;;;;11.60;4.50;;;20.30;99.90;;;;;;5186998;28;20030;-75
2022/04/25 07:50:49;;;;;;;11.40;5.00;;;20.40;99.90;;;;;;5205362;28;20040;-75
2022/04/25 07:53:22;;;;;;;12.85;5.47;;;20.00;99.90;;;;;;5207451;28;20026;-74
2022/04/25 07:55:56;;;;;;;13.07;6.82;;;20.40;99.90;;;;;;5207362;28;20457;-75
2022/04/25 07:58:30;;;;;;;17.15;5.85;;;20.50;99.90;;;;;;5206156;28;20533;-72
2022/04/25 08:01:06;;;;;;;15.23;6.93;;;20.70;99.90;;;;;;5207346;28;20033;-75
2022/04/25 08:03:38;;;;;;;15.40;6.82;;;20.80;99.90;;;;;;5190388;28;20026;-75
2022/04/25 08:06:15;;;;;;;13.50;6.47;;;21.00;99.90;;;;;;5187147;28;20057;-74
2022/04/25 08:08:54;;;;;;;14.45;6.38;;;21.00;99.90;;;;;;5206090;28;20457;-75
2022/04/25 08:11:28;;;;;;;11.60;6.47;;;20.60;99.90;;;;;;5206102;28;20499;-75
2022/04/25 08:19:48;;;;;;;16.15;5.95;;;21.60;99.90;;;;;;5206965;28;20099;-70
2022/04/25 08:22:27;;;;;;;11.05;5.72;;;21.60;99.90;;;;;;5207243;28;20029;-72
2022/04/25 08:25:09;;;;;;;15.02;5.75;;;21.80;99.90;;;;;;5205541;28;20489;-71
2022/04/25 08:27:44;;;;;;;9.35;5.47;;;21.70;99.90;;;;;;5205675;28;20030;-70
2022/04/25 08:30:21;;;;;;;11.73;4.78;;;21.60;99.90;;;;;;5203653;28;20022;-70
2022/04/25 08:32:56;;;;;;;8.63;4.38;;;21.70;99.90;;;;;;5206822;28;20373;-70
2022/04/25 08:35:29;;;;;;;10.77;4.38;;;21.70;99.90;;;;;;5206855;28;20021;-70
2022/04/25 08:38:02;;;;;;;9.55;4.38;;;22.20;99.90;;;;;;5190550;28;20034;-70
2022/04/25 08:40:41;;;;;;;9.43;3.97;;;22.00;99.90;;;;;;5186231;28;20018;-71
2022/04/25 08:43:16;;;;;;;15.90;7.40;;;22.20;99.90;;;;;;5185087;28;20029;-71
2022/04/25 08:45:55;;;;;;;29.70;13.63;;;22.50;99.90;;;;;;5185624;28;20110;-75
2022/04/25 08:48:30;;;;;;;8.00;3.60;;;22.50;99.90;;;;;;5184545;28;20488;-74
2022/04/25 08:51:08;;;;;;;11.88;4.38;;;22.20;99.90;;;;;;5185965;28;20365;-73
2022/04/25 08:53:42;;;;;;;10.70;3.53;;;22.80;99.90;;;;;;5186328;28;20480;-71
2022/04/25 08:56:22;;;;;;;11.43;4.35;;;22.90;99.90;;;;;;5186179;28;20409;-75
2022/04/25 08:58:57;;;;;;;8.23;3.25;;;23.20;99.90;;;;;;5204268;28;20037;-73
2022/04/25 09:01:33;;;;;;;8.00;3.65;;;23.10;99.90;;;;;;5206376;28;20029;-71
2022/04/25 09:04:08;;;;;;;10.27;3.97;;;23.40;99.90;;;;;;5206376;28;20128;-70
2022/04/25 09:06:44;;;;;;;7.00;3.30;;;23.60;99.90;;;;;;5206194;28;20061;-70
2022/04/25 09:09:15;;;;;;;9.15;3.88;;;23.30;99.90;;;;;;5206480;28;20076;-71
2022/04/25 09:14:44;;;;;;;7.95;3.17;;;23.60;99.90;;;;;;5206337;28;20025;-71
2022/04/25 09:17:17;;;;;;;5.80;3.28;;;23.80;99.90;;;;;;5210049;28;20021;-75
2022/04/25 09:20:01;;;;;;;8.50;3.70;;;23.60;99.90;;;;;;5209836;28;20478;-72
2022/04/25 09:22:37;;;;;;;6.15;3.63;;;23.50;99.90;;;;;;5210529;28;20457;-73
2022/04/25 09:25:12;;;;;;;9.90;3.42;;;23.60;99.90;;;;;;5210367;28;20092;-74
2022/04/25 09:27:47;;;;;;;8.07;3.55;;;23.70;99.90;;;;;;5210112;28;20029;-75
2022/04/25 09:30:24;;;;;;;4.65;3.25;;;24.00;99.90;;;;;;5210312;28;20140;-70
2022/04/25 09:33:02;;;;;;;7.25;3.35;;;24.00;99.90;;;;;;5210412;28;20029;-70
2022/04/25 09:35:38;;;;;;;7.68;3.10;;;23.50;99.90;;;;;;5210056;28;20029;-71
2022/04/25 09:38:20;;;;;;;5.40;2.92;;;23.50;99.90;;;;;;5192704;28;20931;-71
2022/04/25 09:40:59;;;;;;;6.82;2.83;;;23.90;99.90;;;;;;5189856;28;20037;-70
2022/04/25 09:43:34;;;;;;;8.27;3.35;;;23.40;99.90;;;;;;5189447;28;20029;-70
2022/04/25 09:46:15;;;;;;;5.65;3.03;;;24.00;99.90;;;;;;5189641;28;20105;-70
2022/04/25 09:49:04;;;;;;;6.85;3.22;;;24.00;99.90;;;;;;5189420;28;20120;-70
2022/04/25 09:51:58;;;;;;;6.53;3.23;;;24.00;99.90;;;;;;5194022;28;20129;-73
2022/04/25 09:54:33;;;;;;;7.63;3.25;;;24.20;99.90;;;;;;5208393;28;20734;-74
2022/04/25 09:57:08;;;;;;;7.93;3.30;;;24.40;99.90;;;;;;5209684;28;20049;-74
2022/04/25 09:59:47;;;;;;;8.85;3.47;;;23.60;99.90;;;;;;5208632;28;20076;-75
2022/04/25 10:02:26;;;;;;;7.93;3.05;;;23.80;99.90;;;;;;5209727;28;20022;-75
2022/04/25 10:05:17;;;;;;;7.60;3.17;;;24.00;99.90;;;;;;5209328;28;20037;-75
2022/04/25 10:08:00;;;;;;;5.15;2.85;;;23.90;99.90;;;;;;5209161;28;20462;-75
2022/04/25 10:10:34;;;;;;;6.43;3.40;;;24.20;99.90;;;;;;5209681;28;20025;-75
2022/04/25 10:13:12;;;;;;;7.47;3.13;;;24.40;99.90;;;;;;5209207;28;20014;-75
2022/04/25 10:15:47;;;;;;;6.88;3.35;;;24.20;99.90;;;;;;5209215;28;20017;-74
2022/04/25 10:18:22;;;;;;;6.00;3.30;;;24.40;99.90;;;;;;5209123;28;20068;-75
2022/04/25 10:21:00;;;;;;;9.55;3.03;;;24.00;99.90;;;;;;5207879;28;20057;-74
2022/04/25 10:23:35;;;;;;;3.72;2.20;;;24.40;99.90;;;;;;5208809;28;20535;-74
2022/04/25 10:26:10;;;;;;;7.47;2.78;;;24.20;99.90;;;;;;5209012;28;20381;-78
2022/04/25 10:28:54;;;;;;;3.70;2.28;;;24.20;99.90;;;;;;5207751;28;20380;-73
2022/04/25 10:31:43;;;;;;;5.90;2.72;;;24.00;99.90;;;;;;5209227;28;20026;-74
2022/04/25 10:34:23;;;;;;;6.43;3.22;;;24.50;99.90;;;;;;5206760;28;20191;-73
2022/04/25 10:36:59;;;;;;;6.72;2.85;;;24.10;99.90;;;;;;5205228;28;20021;-74
2022/04/25 10:39:47;;;;;;;4.70;2.60;;;24.80;99.90;;;;;;5207946;28;20032;-73
2022/04/25 10:45:19;;;;;;;5.55;3.03;;;25.00;99.90;;;;;;5208959;28;20044;-74
2022/04/25 10:47:58;;;;;;;;;;;24.70;99.90;;;;;;5208994;28;20032;-74
2022/04/25 10:50:33;;;;;;;5.03;2.38;;;24.70;99.90;;;;;;5208572;28;20382;-74
2022/04/25 10:53:07;;;;;;;5.00;2.50;;;23.80;99.90;;;;;;5208605;28;20099;-74
2022/04/25 10:56:08;;;;;;;6.95;2.42;;;24.00;99.90;;;;;;5208468;28;20025;-74
2022/04/25 10:58:42;;;;;;;5.80;3.47;;;25.10;99.90;;;;;;5208195;28;20116;-75
2022/04/25 11:01:31;;;;;;;5.28;3.08;;;24.70;99.90;;;;;;5207540;28;20039;-74
2022/04/25 11:04:14;;;;;;;6.22;2.42;;;25.10;99.90;;;;;;5208756;28;20041;-75
2022/04/25 11:06:49;;;;;;;5.85;2.60;;;25.10;99.90;;;;;;5208225;28;20035;-74
2022/04/25 11:09:42;;;;;;;7.45;2.80;;;25.40;99.90;;;;;;5208613;28;20021;-74
2022/04/25 11:12:18;;;;;;;6.97;2.80;;;25.60;99.90;;;;;;5194379;28;20029;-74
2022/04/25 11:15:06;;;;;;;5.95;3.00;;;25.70;99.90;;;;;;5208230;28;20104;-75
2022/04/25 11:17:59;;;;;;;6.05;2.85;;;26.20;99.90;;;;;;5207922;28;20083;-75
2022/04/25 11:20:57;;;;;;;10.27;2.80;;;25.90;99.90;;;;;;5207331;28;20096;-70
2022/04/25 11:23:32;;;;;;;5.47;2.88;;;25.70;99.90;;;;;;5208184;28;20419;-70
2022/04/25 11:26:07;;;;;;;8.10;2.70;;;25.70;99.90;;;;;;5208077;28;20021;-70
2022/04/25 11:29:15;;;;;;;5.53;2.72;;;26.10;99.90;;;;;;5208043;28;20167;-74
2022/04/25 11:31:50;;;;;;;4.57;2.83;;;25.30;99.90;;;;;;5202637;28;20033;-76
2022/04/25 11:34:28;;;;;;;4.85;2.67;;;26.10;99.90;;;;;;5208176;28;20032;-75
2022/04/25 11:37:01;;;;;;;6.28;2.58;;;26.00;99.90;;;;;;5207700;28;20092;-71
2022/04/25 11:39:55;;;;;;;5.20;2.45;;;25.90;99.90;;;;;;5207843;28;20021;-70
2022/04/25 11:42:29;;;;;;;6.97;2.70;;;26.20;99.90;;;;;;5207836;28;20034;-70
2022/04/25 11:45:08;;;;;;;6.75;3.10;;;26.10;99.90;;;;;;5207241;28;20041;-70
2022/04/25 11:47:42;;;;;;;7.45;3.08;;;26.00;99.90;;;;;;5207826;28;20396;-70
2022/04/25 11:50:22;;;;;;;5.25;3.00;;;25.90;99.90;;;;;;5207163;28;20061;-75
2022/04/25 11:52:56;;;;;;;8.23;3.17;;;25.80;99.90;;;;;;5207770;28;20025;-70
2022/04/25 11:55:38;;;;;;;5.10;2.97;;;25.30;99.90;;;;;;5206254;28;20579;-70
2022/04/25 11:58:13;;;;;;;6.75;3.33;;;25.10;99.90;;;;;;5207352;28;20018;-70
2022/04/25 12:00:48;;;;;;;7.43;2.88;;;25.80;99.90;;;;;;5206205;28;20111;-70
2022/04/25 12:03:27;;;;;;;5.55;3.10;;;25.20;99.90;;;;;;5207425;28;20032;-70
2022/04/25 12:06:13;;;;;;;6.07;3.10;;;26.30;99.90;;;;;;5207449;28;20092;-71
2022/04/25 12:17:37;;;;;;;6.47;3.15;;;26.20;99.90;;;;;;5207723;28;20508;-70
2022/04/25 12:20:15;;;;;;;6.57;3.40;;;26.40;99.90;;;;;;5206737;28;20119;-70
2022/04/25 12:23:04;;;;;;;7.15;3.53;;;26.30;99.90;;;;;;5206917;28;20029;-75
2022/04/25 12:25:44;;;;;;;10.50;3.50;;;26.20;99.90;;;;;;5206500;28;20041;-75
2022/04/25 12:28:22;;;;;;;5.80;2.75;;;26.30;99.90;;;;;;5205436;28;20390;-75
2022/04/25 12:31:11;;;;;;;8.23;3.38;;;26.40;99.90;;;;;;5206744;28;20075;-75
2022/04/25 12:33:54;;;;;;;12.33;3.60;;;26.20;99.90;;;;;;5206682;28;20052;-71
2022/04/25 12:36:29;;;;;;;11.13;3.60;;;26.40;99.90;;;;;;5203180;28;20018;-72
2022/04/25 12:39:05;;;;;;;5.97;2.83;;;25.90;99.90;;;;;;5186107;28;20478;-74
2022/04/25 12:41:59;;;;;;;8.50;3.03;;;26.30;99.90;;;;;;5185886;28;20421;-71
2022/04/25 12:44:36;;;;;;;7.97;2.97;;;26.40;98.30;;;;;;5194124;28;20037;-72
2022/04/25 12:47:11;;;;;;;5.65;3.03;;;26.80;99.90;;;;;;5205377;28;20029;-70
2022/04/25 12:49:49;;;;;;;7.20;3.50;;;25.90;96.20;;;;;;5203594;28;20052;-75
2022/04/25 12:52:22;;;;;;;8.23;3.92;;;26.30;98.80;;;;;;5204072;28;20025;-72
2022/04/25 12:54:57;;;;;;;12.48;4.25;;;26.60;99.10;;;;;;5205722;28;20402;-70
2022/04/25 12:57:31;;;;;;;9.00;3.88;;;26.50;98.80;;;;;;5205948;28;20357;-70
2022/04/25 13:00:08;;;;;;;9.00;4.10;;;26.40;99.90;;;;;;5203316;28;20024;-71
2022/04/25 13:02:42;;;;;;;10.55;3.70;;;27.30;96.20;;;;;;5201478;28;20563;-71
2022/04/25 13:05:17;;;;;;;7.93;3.47;;;26.60;95.80;;;;;;5205094;28;20022;-71
2022/04/25 13:07:50;;;;;;;6.82;3.13;;;26.70;94.60;;;;;;5205401;28;20014;-70
2022/04/25 13:10:24;;;;;;;9.57;4.15;;;27.60;95.00;;;;;;5202991;28;20397;-72
2022/04/25 13:13:06;;;;;;;11.63;3.58;;;26.60;94.20;;;;;;5205228;28;20029;-70
2022/04/25 13:15:47;;;;;;;11.07;3.42;;;26.50;96.10;;;;;;5205559;28;20377;-70
2022/04/25 13:18:21;;;;;;;6.80;2.78;;;26.70;98.70;;;;;;5205484;28;20018;-71
2022/04/25 13:20:55;;;;;;;4.82;2.60;;;26.70;95.60;;;;;;5205605;28;20042;-71
2022/04/25 13:23:30;;;;;;;5.53;2.67;;;27.00;98.80;;;;;;5206234;28;20025;-70
2022/04/25 13:26:11;;;;;;;6.22;2.90;;;26.80;96.60;;;;;;5206238;28;20025;-70
2022/04/25 13:28:44;;;;;;;8.77;3.50;;;26.80;97.40;;;;;;5206272;28;20026;-70
2022/04/25 13:31:20;;;;;;;6.93;3.10;;;26.10;97.70;;;;;;5204873;28;20083;-70
2022/04/25 13:33:53;;;;;;;10.48;2.92;;;26.50;99.40;;;;;;5205102;28;20362;-73
2022/04/25 13:36:29;;;;;;;11.90;3.33;;;26.80;98.50;;;;;;5203123;28;20462;-72
2022/04/25 13:39:08;;;;;;;5.78;2.58;;;27.50;95.30;;;;;;5185765;28;20022;-73
2022/04/25 13:41:44;;;;;;;7.18;2.22;;;26.40;96.70;;;;;;5185859;28;20026;-71
2022/04/25 13:44:25;;;;;;;9.32;2.90;;;25.90;97.10;;;;;;5185371;28;20081;-70
2022/04/25 13:47:00;;;;;;;5.85;2.33;;;26.30;99.60;;;;;;5185924;28;20026;-74
2022/04/25 13:49:33;;;;;;;6.00;2.58;;;26.50;96.50;;;;;;5185685;28;20074;-75
2022/04/25 13:52:10;;;;;;;5.25;2.58;;;27.00;96.80;;;;;;5185410;28;20018;-75
2022/04/25 13:54:43;;;;;;;7.32;3.40;;;25.70;92.30;;;;;;5185581;28;20065;-74
2022/04/25 13:57:17;;;;;;;4.47;2.80;;;26.10;92.90;;;;;;5184344;28;20034;-74
2022/04/25 13:59:51;;;;;;;8.43;2.67;;;26.70;93.10;;;;;;5185463;28;20033;-74
2022/04/25 14:05:16;;;;;;;10.23;3.50;;;25.90;97.80;;;;;;5189156;28;20115;-69
2022/04/25 14:07:49;;;;;;;6.13;2.95;;;26.60;97.40;;;;;;5201560;28;20056;-70
2022/04/25 14:10:28;;;;;;;5.63;3.10;;;26.30;97.50;;;;;;5209067;28;20032;-69